This is the latest recevied weather packets stored in our database for station/object W4RJG. If no packets are shown the sender has not sent any weather packets the latest 10 day(s).
| Time | Temp. | Humidity | Pressure | Rain* | Wind** | Luminosity | Snow |
|---|---|---|---|---|---|---|---|
| 1778005807 | 28.33° C | 33% | 1003 hPa | 0 mm | - | 0 W/m² | - |
| 1778002807 | 28.33° C | 35% | 1003.7 hPa | 0 mm | - | 0 W/m² | - |
| 1777993205 | 24.44° C | 50% | 1005.4 hPa | 0 mm | - | 0 W/m² | - |
| 1777992605 | 23.33° C | 49% | 1005.4 hPa | 0 mm | - | 0 W/m² | - |
| 1777988404 | 20.56° C | 59% | 1005.1 hPa | 0 mm | - | 0 W/m² | - |
| 1777987204 | 19.44° C | 63% | 1005.1 hPa | 0 mm | - | 0 W/m² | - |
| 1777982405 | 15° C | 77% | 1005.1 hPa | 0 mm | - | 0 W/m² | - |
| 1777981804 | 14.44° C | 78% | 1005.1 hPa | 0 mm | - | 0 W/m² | - |
| 1777981205 | 13.89° C | 80% | 1005.1 hPa | 0 mm | - | 0 W/m² | - |
| 1777977005 | 11.67° C | 84% | 1004.4 hPa | 0 mm | - | 0 W/m² | - |
| 1777974005 | 12.78° C | 79% | 1004.1 hPa | 0 mm | - | 0 W/m² | - |
| 1777973405 | 12.78° C | 79% | 1004.1 hPa | 0 mm | - | 0 W/m² | - |
| 1777967405 | 15.56° C | 68% | 1003.4 hPa | 0 mm | - | 0 W/m² | - |
| 1777959608 | 17.78° C | 55% | 1003 hPa | 0 mm | - | 0 W/m² | - |
| 1777947605 | 18.33° C | 56% | 1002.7 hPa | 0 mm | - | 0 W/m² | - |
| 1777944008 | 18.89° C | 57% | 1002 hPa | 0 mm | - | 0 W/m² | - |
| 1777942807 | 20° C | 53% | 1002 hPa | 0 mm | - | 0 W/m² | - |
| 1777941606 | 21.11° C | 48% | 1001.7 hPa | 0 mm | - | 0 W/m² | - |
| 1777936805 | 24.44° C | 42% | 1001.4 hPa | 0 mm | - | 0 W/m² | - |
| 1777930811 | 26.67° C | 37% | 1001.7 hPa | 0 mm | - | 0 W/m² | - |
| 1777928405 | 26.67° C | 35% | 1001.4 hPa | 0 mm | - | 0 W/m² | - |
| 1777927809 | 26.67° C | 35% | 1001.6 hPa | 0 mm | - | 0 W/m² | - |
| 1777927206 | 26.11° C | 35% | 1001.4 hPa | 0 mm | - | 0 W/m² | - |
| 1777924806 | 26.11° C | 35% | 1002 hPa | 0 mm | - | 0 W/m² | - |
| 1777922408 | 26.67° C | 33% | 1002.7 hPa | 0 mm | - | 0 W/m² | - |
* Rain latest hour (hover to see other rain measurements)
** Current wind speed in m/s (hover to see current wind gust speed)